EDT,Max TemperatureF,Mean TemperatureF,Min TemperatureF,Max Dew PointF,MeanDew PointF,Min DewpointF,Max Humidity, Mean Humidity, Min Humidity, Max Sea Level PressureIn, Mean Sea Level PressureIn, Min Sea Level PressureIn, Max VisibilityMiles, Mean VisibilityMiles, Min VisibilityMiles, Max Wind SpeedMPH, Mean Wind SpeedMPH, Max Gust SpeedMPH,PrecipitationIn, CloudCover, Events, WindDirDegrees
2012-8-1,87,76,64,68,64,61,100,72,44,29.92,29.89,29.85,10,6,1,9,2,15,0.00,1,,359
2012-8-2,89,74,59,66,61,57,97,67,37,29.95,29.92,29.88,10,10,8,8,1,12,0.00,0,,19
2012-8-3,90,77,64,69,65,60,93,66,38,30.00,29.96,29.91,10,9,7,12,3,16,0.00,0,,126
2012-8-4,88,78,67,71,69,66,100,78,55,30.05,30.01,29.97,10,9,3,15,6,21,0.00,2,,160
2012-8-5,83,76,68,73,70,67,93,76,58,30.09,30.03,29.99,10,8,1,22,5,31,0.55,5,Rain-Thunderstorm,210
2012-8-6,84,73,61,66,61,57,93,68,43,30.15,30.10,30.04,10,9,2,9,1,12,0.00,0,,14
2012-8-7,86,72,57,65,59,55,100,69,37,30.05,30.01,29.96,10,9,0,10,2,14,0.00,1,Fog,285
2012-8-8,90,75,59,68,64,57,97,72,46,30.01,29.96,29.90,10,10,5,10,3,15,T,0,Thunderstorm,143
2012-8-9,87,75,63,68,65,60,100,76,51,29.98,29.90,29.76,10,6,2,20,3,29,0.16,2,Rain-Thunderstorm,198
2012-8-10,77,70,62,66,63,54,100,79,58,29.81,29.74,29.70,10,7,1,12,5,20,0.24,6,Rain-Thunderstorm,198
2012-8-11,69,64,59,63,58,53,93,83,72,29.98,29.90,29.79,10,10,9,12,5,18,T,8,Rain,234
2012-8-12,79,70,60,62,59,57,93,71,48,30.04,30.00,29.97,10,10,9,12,2,16,0.00,4,,281
2012-8-13,82,71,59,66,60,55,100,73,45,30.06,30.00,29.95,10,9,4,8,1,12,T,2,,160
2012-8-14,77,68,59,66,63,58,97,83,68,29.95,29.89,29.85,10,8,1,14,3,20,0.16,5,Rain-Thunderstorm,263
2012-8-15,82,71,60,64,60,56,100,70,40,30.00,29.96,29.93,10,5,0,9,1,13,0.00,4,Fog,359
2012-8-16,85,71,57,64,59,55,100,72,43,30.03,29.97,29.86,10,7,1,13,3,18,0.00,1,,188
2012-8-17,80,69,58,64,60,54,87,65,42,29.96,29.89,29.85,10,10,5,13,3,16,0.07,4,Rain,320
2012-8-18,80,66,52,58,54,47,93,63,33,30.01,29.97,29.91,10,9,2,10,2,13,0.00,1,,77
2012-8-19,82,69,55,58,55,52,93,65,36,29.97,29.92,29.85,10,10,10,15,2,24,0.01,2,Rain-Thunderstorm,348
2012-8-20,81,68,54,60,55,53,100,71,42,30.01,29.93,29.89,10,6,0,14,3,18,0.01,3,Fog-Thunderstorm,340
2012-8-21,79,65,50,63,54,48,100,73,46,30.13,30.07,30.02,10,4,0,14,2,17,0.54,4,Fog-Rain-Thunderstorm,72
2012-8-22,82,68,53,60,56,51,100,68,36,30.19,30.15,30.10,10,6,0,6,0,8,0.00,1,Fog,145
2012-8-23,86,70,53,61,56,52,100,67,34,30.19,30.15,30.11,10,6,0,7,1,10,0.00,0,Fog,138
2012-8-24,88,71,54,64,57,54,100,69,37,30.19,30.14,30.09,10,5,0,10,2,14,0.00,0,Fog,139
2012-8-25,88,74,59,65,60,56,93,64,35,30.19,30.15,30.11,10,9,4,10,4,15,0.00,0,,140
2012-8-26,86,71,55,65,60,53,93,71,48,30.22,30.15,30.07,10,10,5,9,2,15,0.00,0,,148
2012-8-27,83,72,61,72,68,60,100,78,55,30.08,30.01,29.94,10,6,1,14,3,21,0.36,6,Rain,193
2012-8-28,83,71,58,70,64,55,100,73,45,30.08,30.04,29.99,10,6,0,14,4,18,0.00,4,Fog,328
2012-8-29,81,68,54,60,55,51,100,68,36,30.11,30.07,30.04,10,9,6,10,3,15,0.00,1,,25
2012-8-30,87,68,49,58,51,46,96,62,27,30.16,30.11,30.07,10,9,2,6,1,9,0.00,1,,184
2012-8-31,93,72,51,69,60,51,100,67,33,30.16,30.10,30.04,10,9,4,15,4,22,0.01,0,,224